createdAt,value
2023-06-18T00:01:59.885Z,2.50
2023-06-18T00:04:29.608Z,2.50
2023-06-18T00:06:57.303Z,2.80
2023-06-18T00:09:24.081Z,2.80
2023-06-18T00:11:51.284Z,2.80
2023-06-18T00:14:18.723Z,2.40
2023-06-18T00:16:45.712Z,2.90
2023-06-18T00:19:12.371Z,3.00
2023-06-18T00:21:38.994Z,2.60
2023-06-18T00:24:05.841Z,2.90
2023-06-18T00:26:32.546Z,2.60
2023-06-18T00:28:59.245Z,2.50
2023-06-18T00:31:27.170Z,2.40
2023-06-18T00:33:54.666Z,3.00
2023-06-18T00:36:21.537Z,2.00
2023-06-18T00:38:48.406Z,2.40
2023-06-18T00:41:15.113Z,2.50
2023-06-18T00:43:41.740Z,2.20
2023-06-18T00:46:08.412Z,2.60
2023-06-18T00:48:37.455Z,2.30
2023-06-18T00:51:07.242Z,2.50
2023-06-18T00:53:34.268Z,3.30
2023-06-18T00:56:00.998Z,2.60
2023-06-18T00:58:28.314Z,2.00
2023-06-18T01:00:55.090Z,2.20
2023-06-18T01:03:23.234Z,2.00
2023-06-18T01:05:55.301Z,2.30
2023-06-18T01:08:25.594Z,2.50
2023-06-18T01:11:01.671Z,2.50
2023-06-18T01:13:31.933Z,2.40
2023-06-18T01:16:04.905Z,2.40
2023-06-18T01:18:37.327Z,2.60
2023-06-18T01:21:10.887Z,2.20
2023-06-18T01:23:50.488Z,2.20
2023-06-18T01:26:22.003Z,2.30
2023-06-18T01:29:00.097Z,2.60
2023-06-18T01:31:29.459Z,2.80
2023-06-18T01:33:56.456Z,2.40
2023-06-18T01:36:34.612Z,2.80
2023-06-18T01:39:08.239Z,2.80
2023-06-18T01:41:37.661Z,2.20
2023-06-18T01:44:07.425Z,3.30
2023-06-18T01:46:34.910Z,3.00
2023-06-18T01:49:08.098Z,2.90
2023-06-18T01:51:36.434Z,2.30
2023-06-18T01:54:03.977Z,2.10
2023-06-18T01:56:31.106Z,2.70
2023-06-18T01:58:57.868Z,2.30
2023-06-18T02:01:27.319Z,2.60
2023-06-18T02:03:54.130Z,3.60
2023-06-18T02:06:21.097Z,2.50
2023-06-18T02:08:47.860Z,2.50
2023-06-18T02:11:14.612Z,2.50
2023-06-18T02:13:41.341Z,2.50
2023-06-18T02:16:07.978Z,2.50
2023-06-18T02:18:36.320Z,3.10
2023-06-18T02:21:05.199Z,2.10
2023-06-18T02:23:32.007Z,2.70
2023-06-18T02:25:58.950Z,2.40
2023-06-18T02:28:25.876Z,2.50
2023-06-18T02:30:52.591Z,2.30
2023-06-18T02:33:19.658Z,2.80
2023-06-18T02:35:46.608Z,2.60
2023-06-18T02:38:13.267Z,2.40
2023-06-18T02:40:39.955Z,2.50
2023-06-18T02:43:06.736Z,2.80
2023-06-18T02:45:33.426Z,2.50
2023-06-18T02:48:00.241Z,2.40
2023-06-18T02:50:27.031Z,2.60
2023-06-18T02:52:55.921Z,2.90
2023-06-18T02:55:23.763Z,2.40
2023-06-18T02:57:51.272Z,2.30
2023-06-18T03:00:18.206Z,2.70
2023-06-18T03:02:45.758Z,2.50
2023-06-18T03:05:15.963Z,2.80
2023-06-18T03:07:42.892Z,2.60
2023-06-18T03:10:11.368Z,3.20
2023-06-18T03:12:38.346Z,2.50
2023-06-18T03:15:15.675Z,3.20
2023-06-18T03:17:44.204Z,2.50
2023-06-18T03:20:11.367Z,2.80
2023-06-18T03:22:38.348Z,2.60
2023-06-18T03:25:06.473Z,2.50
2023-06-18T03:27:33.600Z,2.40
2023-06-18T03:30:00.510Z,2.90
2023-06-18T03:32:27.981Z,2.90
2023-06-18T03:34:54.688Z,2.80
2023-06-18T03:37:21.620Z,2.70
2023-06-18T03:39:48.287Z,2.90
2023-06-18T03:42:15.266Z,2.60
2023-06-18T03:44:41.938Z,2.50
2023-06-18T03:47:08.771Z,2.90
2023-06-18T03:49:35.998Z,2.70
2023-06-18T03:52:03.459Z,3.10
2023-06-18T03:54:30.112Z,3.00
2023-06-18T03:56:57.735Z,2.70
2023-06-18T03:59:24.647Z,3.30
2023-06-18T04:01:51.642Z,3.00
2023-06-18T04:04:18.455Z,3.20
2023-06-18T04:06:45.093Z,2.80
2023-06-18T04:09:13.168Z,3.00
2023-06-18T04:11:40.236Z,2.70
2023-06-18T04:14:06.934Z,3.70
2023-06-18T04:16:34.032Z,3.90
2023-06-18T04:19:01.496Z,3.80
2023-06-18T04:21:28.225Z,4.70
2023-06-18T04:23:55.601Z,4.50
2023-06-18T04:26:25.727Z,4.70
2023-06-18T04:28:52.654Z,4.20
2023-06-18T04:31:19.947Z,4.10
2023-06-18T04:33:46.978Z,4.40
2023-06-18T04:36:14.257Z,4.50
2023-06-18T04:38:41.672Z,4.90
2023-06-18T04:41:08.440Z,5.10
2023-06-18T04:43:35.239Z,4.40
2023-06-18T04:46:03.160Z,4.60
2023-06-18T04:48:31.426Z,4.90
2023-06-18T04:51:00.084Z,5.40
2023-06-18T04:53:27.069Z,5.10
2023-06-18T04:55:53.708Z,5.60
2023-06-18T04:58:21.856Z,5.00
2023-06-18T05:00:50.403Z,4.90
2023-06-18T05:03:17.763Z,5.00
2023-06-18T05:05:44.544Z,5.40
2023-06-18T05:08:12.358Z,5.00
2023-06-18T05:10:39.055Z,5.40
2023-06-18T05:13:05.858Z,5.00
2023-06-18T05:15:33.434Z,4.90
2023-06-18T05:18:00.297Z,5.20
2023-06-18T05:20:27.043Z,5.00
2023-06-18T05:22:53.956Z,4.70
2023-06-18T05:25:20.894Z,5.30
2023-06-18T05:27:47.540Z,5.10
2023-06-18T05:30:14.292Z,5.30
2023-06-18T05:32:41.461Z,4.50
2023-06-18T05:35:11.344Z,5.10
2023-06-18T05:37:44.247Z,5.50
2023-06-18T05:40:12.465Z,5.20
2023-06-18T05:42:42.073Z,5.10
2023-06-18T05:45:09.528Z,5.40
2023-06-18T05:47:36.500Z,5.20
2023-06-18T05:50:05.056Z,5.40
2023-06-18T05:52:31.818Z,5.40
2023-06-18T05:54:58.565Z,5.50
2023-06-18T05:57:25.377Z,5.10
2023-06-18T05:59:53.049Z,5.00
2023-06-18T06:02:20.583Z,4.90
2023-06-18T06:04:47.280Z,5.30
2023-06-18T06:07:14.250Z,5.10
2023-06-18T06:09:41.271Z,4.90
2023-06-18T06:12:09.310Z,4.80
2023-06-18T06:14:36.121Z,4.70
2023-06-18T06:17:02.859Z,4.60
2023-06-18T06:19:30.341Z,7.60
2023-06-18T06:21:57.140Z,5.40
2023-06-18T06:24:24.235Z,5.30
2023-06-18T06:26:51.095Z,4.70
2023-06-18T06:29:20.602Z,5.20
2023-06-18T06:31:50.195Z,6.00
2023-06-18T06:34:17.639Z,5.50
2023-06-18T06:36:44.541Z,5.30
2023-06-18T06:39:12.920Z,5.10
2023-06-18T06:41:40.257Z,5.20
2023-06-18T06:44:09.897Z,5.20
2023-06-18T06:46:45.398Z,4.90
2023-06-18T06:49:32.376Z,5.30
2023-06-18T06:52:17.698Z,5.30
2023-06-18T06:54:44.573Z,4.80
2023-06-18T06:57:11.413Z,4.90
2023-06-18T06:59:38.135Z,5.40
2023-06-18T07:02:05.125Z,4.90
2023-06-18T07:04:32.997Z,5.80
2023-06-18T07:07:00.048Z,5.30
2023-06-18T07:09:27.220Z,5.80
2023-06-18T07:11:53.960Z,5.10
2023-06-18T07:14:20.769Z,5.30
2023-06-18T07:16:47.565Z,4.70
2023-06-18T07:19:14.226Z,5.40
2023-06-18T07:21:40.860Z,5.10
2023-06-18T07:24:07.572Z,5.00
2023-06-18T07:26:34.208Z,5.60
2023-06-18T07:29:00.929Z,5.50
2023-06-18T07:31:27.624Z,5.10
2023-06-18T07:33:54.634Z,5.40
2023-06-18T07:36:21.290Z,5.30
2023-06-18T07:38:49.052Z,5.20
2023-06-18T07:41:15.850Z,4.90
2023-06-18T07:43:42.524Z,4.90
2023-06-18T07:46:09.379Z,5.30
2023-06-18T07:48:36.095Z,5.20
2023-06-18T07:51:04.468Z,4.80
2023-06-18T07:53:32.893Z,5.40
2023-06-18T07:56:00.418Z,5.20
2023-06-18T07:58:27.154Z,4.80
2023-06-18T08:00:54.482Z,5.00
2023-06-18T08:03:21.302Z,4.60
2023-06-18T08:05:47.952Z,3.90
2023-06-18T08:08:15.126Z,4.60
2023-06-18T08:10:41.946Z,4.80
2023-06-18T08:13:08.666Z,4.70
2023-06-18T08:15:35.265Z,4.60
2023-06-18T08:18:02.013Z,4.70
2023-06-18T08:20:28.720Z,4.40
2023-06-18T08:22:55.870Z,4.30
2023-06-18T08:25:22.487Z,4.90
2023-06-18T08:27:49.174Z,4.50
2023-06-18T08:30:15.806Z,4.40
2023-06-18T08:32:42.539Z,4.70
2023-06-18T08:35:09.650Z,4.00
2023-06-18T08:37:36.887Z,4.50
2023-06-18T08:40:04.739Z,4.50
2023-06-18T08:42:31.534Z,4.70
2023-06-18T08:44:58.213Z,4.50
2023-06-18T08:47:26.117Z,4.20
2023-06-18T08:49:53.156Z,4.50
2023-06-18T08:52:21.756Z,4.50
2023-06-18T08:54:52.977Z,4.40
2023-06-18T08:57:25.730Z,4.30
2023-06-18T08:59:52.416Z,4.00
2023-06-18T09:02:22.565Z,4.30
2023-06-18T09:04:50.186Z,3.80
2023-06-18T09:07:16.890Z,3.60
2023-06-18T09:09:43.946Z,4.30
2023-06-18T09:12:11.481Z,3.80
2023-06-18T09:14:38.262Z,4.10
2023-06-18T09:17:05.131Z,3.90
2023-06-18T09:19:33.493Z,3.90
2023-06-18T09:22:13.743Z,4.10
2023-06-18T09:24:40.710Z,4.00
2023-06-18T09:27:07.806Z,3.80
2023-06-18T09:29:35.687Z,3.40
2023-06-18T09:32:09.299Z,4.30
2023-06-18T09:34:37.337Z,4.40
2023-06-18T09:37:04.729Z,3.80
2023-06-18T09:39:33.690Z,4.10
2023-06-18T09:42:08.193Z,4.40
2023-06-18T09:44:35.063Z,4.40
2023-06-18T09:47:03.809Z,4.60
2023-06-18T09:49:31.625Z,4.50
2023-06-18T09:51:58.704Z,4.90
2023-06-18T09:54:37.820Z,4.30
2023-06-18T09:57:04.878Z,4.10
2023-06-18T09:59:32.680Z,4.00
2023-06-18T10:01:59.710Z,3.90
2023-06-18T10:04:26.795Z,4.00
2023-06-18T10:07:01.230Z,3.90
2023-06-18T10:09:37.837Z,3.90
2023-06-18T10:12:05.604Z,4.10
2023-06-18T10:14:34.700Z,4.10
2023-06-18T10:17:13.475Z,5.00
2023-06-18T10:19:42.971Z,4.10
2023-06-18T10:22:11.055Z,4.40
2023-06-18T10:24:40.953Z,4.30
2023-06-18T10:27:08.344Z,4.10
2023-06-18T10:29:36.145Z,4.00
2023-06-18T10:32:04.324Z,4.60
2023-06-18T10:34:31.532Z,3.70
2023-06-18T10:36:59.352Z,3.90
2023-06-18T10:39:26.473Z,5.00
2023-06-18T10:41:55.378Z,4.50
2023-06-18T10:44:35.870Z,4.50
2023-06-18T10:47:21.520Z,4.20
2023-06-18T10:50:04.083Z,4.10
2023-06-18T10:52:32.029Z,4.70
2023-06-18T10:55:17.814Z,4.40
2023-06-18T10:57:45.958Z,4.20
2023-06-18T11:00:17.216Z,4.30
2023-06-18T11:02:44.934Z,5.40
2023-06-18T11:05:16.633Z,4.30
2023-06-18T11:07:44.473Z,4.10
2023-06-18T11:10:11.428Z,4.10
2023-06-18T11:12:39.547Z,4.10
2023-06-18T11:15:12.208Z,4.90
2023-06-18T11:17:39.193Z,4.20
2023-06-18T11:20:07.086Z,4.20
2023-06-18T11:22:35.210Z,4.30
2023-06-18T11:25:02.251Z,4.30
2023-06-18T11:27:31.494Z,4.50
2023-06-18T11:29:58.505Z,4.70
2023-06-18T11:32:28.718Z,4.10
2023-06-18T11:34:55.730Z,4.60
2023-06-18T11:37:24.785Z,4.50
2023-06-18T11:39:51.388Z,4.40
2023-06-18T11:42:20.936Z,4.30
2023-06-18T11:44:48.798Z,4.20
2023-06-18T11:47:15.712Z,4.90
2023-06-18T11:49:43.476Z,4.60
2023-06-18T11:52:11.184Z,4.60
2023-06-18T11:54:40.075Z,4.60
2023-06-18T11:57:07.687Z,4.50
2023-06-18T11:59:34.470Z,4.50
2023-06-18T12:02:17.369Z,4.40
2023-06-18T12:04:45.042Z,4.50
2023-06-18T12:07:16.212Z,4.20
2023-06-18T12:09:42.818Z,4.00
2023-06-18T12:12:20.622Z,4.50
2023-06-18T12:14:56.116Z,4.20
2023-06-18T12:17:29.760Z,4.40
2023-06-18T12:20:00.433Z,4.40
2023-06-18T12:22:28.439Z,3.90
2023-06-18T12:24:55.802Z,4.40
2023-06-18T12:27:23.265Z,4.30
2023-06-18T12:29:50.023Z,4.20
2023-06-18T12:32:16.672Z,4.30
2023-06-18T12:34:44.389Z,4.10
2023-06-18T12:37:11.116Z,4.40
2023-06-18T12:39:38.980Z,4.30
2023-06-18T12:42:09.831Z,4.30
2023-06-18T12:44:36.476Z,4.40
2023-06-18T12:47:05.792Z,4.40
2023-06-18T12:49:39.233Z,4.20
2023-06-18T12:52:14.637Z,4.40
2023-06-18T12:54:41.558Z,4.10
2023-06-18T12:57:08.214Z,5.00
2023-06-18T12:59:34.916Z,4.30
2023-06-18T13:02:01.535Z,4.50
2023-06-18T13:04:28.790Z,4.50
2023-06-18T13:06:55.537Z,4.60
2023-06-18T13:09:23.080Z,4.60
2023-06-18T13:11:49.717Z,5.90
2023-06-18T13:14:29.975Z,4.60
2023-06-18T13:17:02.817Z,4.70
2023-06-18T13:19:35.746Z,4.90
2023-06-18T13:22:07.892Z,4.60
2023-06-18T13:24:34.620Z,4.60
2023-06-18T13:27:01.250Z,4.90
2023-06-18T13:29:28.994Z,4.20
2023-06-18T13:31:56.052Z,4.80
2023-06-18T13:34:22.781Z,4.80
2023-06-18T13:36:49.434Z,5.10
2023-06-18T13:39:16.080Z,4.70
2023-06-18T13:41:42.899Z,5.00
2023-06-18T13:44:09.538Z,4.90
2023-06-18T13:46:36.335Z,5.10
2023-06-18T13:49:04.289Z,5.00
2023-06-18T13:51:32.211Z,4.70
2023-06-18T13:53:59.003Z,4.90
2023-06-18T13:56:26.111Z,5.70
2023-06-18T13:58:53.692Z,5.20
2023-06-18T14:01:21.083Z,4.90
2023-06-18T14:03:48.061Z,4.30
2023-06-18T14:06:14.796Z,4.80
2023-06-18T14:08:42.951Z,5.10
2023-06-18T14:11:09.873Z,4.70
2023-06-18T14:13:36.652Z,5.00
2023-06-18T14:16:03.853Z,4.60
2023-06-18T14:18:30.508Z,4.20
2023-06-18T14:20:57.449Z,4.70
2023-06-18T14:23:24.513Z,4.90
2023-06-18T14:25:51.839Z,4.50
2023-06-18T14:28:19.804Z,4.90
2023-06-18T14:30:46.468Z,4.80
2023-06-18T14:33:13.255Z,4.80
2023-06-18T14:35:39.972Z,5.20
2023-06-18T14:38:07.077Z,5.20
2023-06-18T14:40:33.737Z,5.10
2023-06-18T14:43:00.464Z,4.40
2023-06-18T14:45:27.199Z,4.90
2023-06-18T14:47:53.969Z,5.20
2023-06-18T14:50:20.740Z,4.60
2023-06-18T14:52:47.384Z,5.00
2023-06-18T14:55:14.610Z,4.90
2023-06-18T14:57:41.518Z,5.20
2023-06-18T15:00:09.064Z,5.10
2023-06-18T15:02:36.377Z,4.90
2023-06-18T15:05:03.336Z,5.00
2023-06-18T15:07:30.202Z,4.80
2023-06-18T15:09:56.879Z,4.80
2023-06-18T15:12:23.482Z,4.70
2023-06-18T15:14:50.142Z,4.80
2023-06-18T15:17:16.971Z,4.50
2023-06-18T15:19:44.384Z,5.20
2023-06-18T15:22:11.181Z,4.50
2023-06-18T15:24:38.021Z,4.70
2023-06-18T15:27:04.844Z,4.70
2023-06-18T15:29:34.591Z,4.70
2023-06-18T15:32:01.254Z,4.60
2023-06-18T15:34:27.890Z,5.00
2023-06-18T15:36:56.517Z,5.00
2023-06-18T15:39:23.240Z,4.50
2023-06-18T15:41:49.931Z,4.60
2023-06-18T15:44:16.770Z,5.30
2023-06-18T15:46:44.435Z,4.70
2023-06-18T15:49:13.136Z,4.60
2023-06-18T15:51:39.745Z,5.10
2023-06-18T15:54:06.543Z,4.50
2023-06-18T15:56:33.197Z,4.90
2023-06-18T15:59:00.770Z,5.20
2023-06-18T16:01:27.588Z,4.80
2023-06-18T16:03:54.397Z,5.10
2023-06-18T16:06:21.128Z,4.40
2023-06-18T16:08:47.842Z,4.90
2023-06-18T16:11:14.555Z,4.80
2023-06-18T16:13:41.186Z,4.20
2023-06-18T16:16:08.229Z,4.90
2023-06-18T16:18:34.879Z,4.80
2023-06-18T16:21:07.675Z,4.90
2023-06-18T16:23:34.827Z,5.00
2023-06-18T16:26:01.748Z,5.30
2023-06-18T16:28:28.661Z,5.00
2023-06-18T16:30:57.764Z,4.40
2023-06-18T16:33:24.400Z,5.10
2023-06-18T16:35:51.118Z,4.90
2023-06-18T16:38:17.785Z,4.90
2023-06-18T16:40:44.432Z,4.40
2023-06-18T16:43:11.161Z,4.70
2023-06-18T16:45:38.040Z,5.00
2023-06-18T16:48:04.870Z,4.80
2023-06-18T16:50:32.060Z,5.10
2023-06-18T16:52:58.749Z,4.80
2023-06-18T16:55:25.667Z,4.70
2023-06-18T16:57:52.482Z,5.20
2023-06-18T17:00:19.776Z,4.60
2023-06-18T17:02:46.559Z,5.10
2023-06-18T17:05:13.341Z,4.40
2023-06-18T17:07:40.039Z,4.70
2023-06-18T17:10:06.944Z,5.00
2023-06-18T17:12:33.654Z,4.80
2023-06-18T17:15:00.366Z,5.40
2023-06-18T17:17:28.268Z,4.90
2023-06-18T17:19:54.964Z,5.40
2023-06-18T17:22:21.799Z,5.00
2023-06-18T17:24:48.579Z,5.10
2023-06-18T17:27:15.206Z,4.80
2023-06-18T17:29:43.598Z,5.10
2023-06-18T17:32:10.309Z,5.30
2023-06-18T17:34:36.909Z,4.80
2023-06-18T17:37:03.740Z,5.10
2023-06-18T17:39:30.470Z,5.00
2023-06-18T17:41:57.146Z,5.40
2023-06-18T17:44:23.795Z,5.20
2023-06-18T17:46:50.644Z,5.00
2023-06-18T17:49:17.349Z,5.00
2023-06-18T17:51:44.542Z,5.00
2023-06-18T17:54:14.211Z,5.10
2023-06-18T17:56:41.510Z,4.70
2023-06-18T17:59:08.288Z,4.50
2023-06-18T18:01:35.183Z,4.60
2023-06-18T18:04:02.130Z,4.90
2023-06-18T18:06:29.107Z,4.90
2023-06-18T18:08:57.651Z,4.80
2023-06-18T18:11:28.838Z,4.90
2023-06-18T18:13:56.487Z,4.80
2023-06-18T18:16:24.081Z,4.90
2023-06-18T18:18:51.490Z,4.80
2023-06-18T18:21:18.324Z,4.80
2023-06-18T18:23:45.651Z,5.20
2023-06-18T18:26:13.221Z,4.80
2023-06-18T18:28:40.906Z,5.40
2023-06-18T18:31:08.702Z,5.40
2023-06-18T18:33:35.638Z,4.40
2023-06-18T18:36:04.602Z,5.20
2023-06-18T18:38:31.749Z,5.10
2023-06-18T18:40:58.506Z,4.80
2023-06-18T18:43:26.865Z,4.20
2023-06-18T18:45:54.161Z,5.10
2023-06-18T18:48:20.912Z,4.70
2023-06-18T18:50:48.166Z,5.10
2023-06-18T18:53:15.948Z,4.90
2023-06-18T18:55:43.908Z,5.10
2023-06-18T18:58:10.979Z,4.90
2023-06-18T19:00:38.164Z,4.00
2023-06-18T19:03:05.920Z,4.60
2023-06-18T19:05:34.311Z,4.60
2023-06-18T19:08:02.081Z,4.20
2023-06-18T19:10:29.453Z,4.80
2023-06-18T19:12:57.188Z,5.20
2023-06-18T19:15:23.931Z,5.40
2023-06-18T19:17:51.336Z,5.70
2023-06-18T19:20:19.313Z,5.30
2023-06-18T19:22:46.768Z,5.30
2023-06-18T19:25:14.003Z,5.50
2023-06-18T19:27:40.795Z,5.90
2023-06-18T19:30:08.863Z,4.60
2023-06-18T19:32:36.233Z,4.30
2023-06-18T19:35:03.347Z,4.20
2023-06-18T19:37:31.417Z,4.60
2023-06-18T19:39:59.718Z,5.30
2023-06-18T19:42:27.788Z,4.70
2023-06-18T19:44:56.371Z,4.70
2023-06-18T19:47:24.457Z,4.70
2023-06-18T19:49:52.219Z,5.20
2023-06-18T19:52:19.788Z,4.50
2023-06-18T19:54:46.817Z,3.80
2023-06-18T19:57:13.803Z,4.30
2023-06-18T19:59:40.425Z,4.20
2023-06-18T20:02:07.234Z,4.10
2023-06-18T20:04:34.108Z,4.40
2023-06-18T20:07:00.994Z,4.30
2023-06-18T20:09:29.230Z,5.00
2023-06-18T20:11:56.200Z,4.80
2023-06-18T20:14:22.885Z,4.50
2023-06-18T20:16:49.569Z,4.20
2023-06-18T20:19:16.925Z,4.20
2023-06-18T20:21:43.556Z,4.20
2023-06-18T20:24:10.240Z,4.70
2023-06-18T20:26:36.965Z,4.30
2023-06-18T20:29:03.566Z,4.70
2023-06-18T20:31:30.592Z,4.10
2023-06-18T20:33:59.122Z,4.50
2023-06-18T20:36:26.028Z,4.80
2023-06-18T20:38:52.741Z,3.60
2023-06-18T20:41:19.489Z,4.00
2023-06-18T20:43:46.091Z,3.60
2023-06-18T20:46:12.814Z,3.60
2023-06-18T20:48:41.165Z,3.50
2023-06-18T20:51:08.392Z,3.50
2023-06-18T20:53:35.199Z,3.90
2023-06-18T20:56:02.019Z,3.20
2023-06-18T20:58:29.324Z,3.40
2023-06-18T21:00:56.011Z,3.30
2023-06-18T21:03:24.450Z,3.40
2023-06-18T21:05:51.550Z,3.10
2023-06-18T21:08:18.583Z,3.40
2023-06-18T21:10:45.316Z,3.10
2023-06-18T21:13:11.999Z,3.30
2023-06-18T21:15:38.931Z,3.70
2023-06-18T21:18:05.644Z,3.00
2023-06-18T21:20:32.357Z,3.50
2023-06-18T21:22:59.094Z,3.30
2023-06-18T21:25:27.135Z,2.90
2023-06-18T21:27:55.637Z,2.80
2023-06-18T21:30:23.541Z,2.90
2023-06-18T21:32:50.394Z,3.30
2023-06-18T21:35:17.260Z,3.50
2023-06-18T21:37:44.535Z,3.50
2023-06-18T21:40:12.008Z,3.80
2023-06-18T21:42:38.657Z,3.50
2023-06-18T21:45:05.578Z,3.70
2023-06-18T21:47:32.317Z,4.10
2023-06-18T21:49:59.726Z,3.70
2023-06-18T21:52:26.423Z,3.40
2023-06-18T21:54:54.587Z,3.70
2023-06-18T21:57:21.201Z,3.50
2023-06-18T21:59:47.884Z,3.70
2023-06-18T22:02:15.001Z,4.00
2023-06-18T22:04:41.916Z,3.10
2023-06-18T22:07:08.672Z,3.20
2023-06-18T22:09:35.349Z,3.20
2023-06-18T22:12:02.046Z,3.20
2023-06-18T22:14:28.719Z,3.50
2023-06-18T22:16:55.354Z,3.60
2023-06-18T22:19:22.165Z,3.50
2023-06-18T22:21:48.901Z,3.30
2023-06-18T22:24:15.540Z,3.50
2023-06-18T22:26:43.361Z,3.20
2023-06-18T22:29:10.046Z,3.00
2023-06-18T22:31:36.716Z,3.30
2023-06-18T22:34:03.475Z,3.20
2023-06-18T22:36:30.081Z,3.40
2023-06-18T22:38:56.706Z,3.10
2023-06-18T22:41:24.497Z,3.00
2023-06-18T22:43:51.262Z,3.20
2023-06-18T22:46:17.983Z,3.10
2023-06-18T22:48:44.663Z,3.00
2023-06-18T22:51:11.289Z,3.20
2023-06-18T22:53:37.901Z,3.10
2023-06-18T22:56:04.593Z,3.70
2023-06-18T22:58:31.228Z,3.80
2023-06-18T23:00:57.909Z,3.20
2023-06-18T23:03:24.727Z,3.50
2023-06-18T23:05:51.568Z,2.80
2023-06-18T23:08:18.551Z,4.20
2023-06-18T23:10:45.894Z,3.40
2023-06-18T23:13:15.415Z,3.00
2023-06-18T23:15:42.055Z,3.20
2023-06-18T23:18:08.762Z,3.40
2023-06-18T23:20:35.809Z,3.40
2023-06-18T23:23:06.698Z,3.40
2023-06-18T23:25:36.096Z,3.50
2023-06-18T23:28:02.839Z,3.30
2023-06-18T23:30:29.503Z,2.80
2023-06-18T23:32:56.254Z,3.00
2023-06-18T23:35:24.190Z,3.10
2023-06-18T23:37:53.764Z,3.30
2023-06-18T23:40:23.501Z,2.60
2023-06-18T23:42:50.980Z,2.70
2023-06-18T23:45:17.972Z,3.10
2023-06-18T23:47:45.219Z,3.20
2023-06-18T23:50:12.172Z,3.00
2023-06-18T23:52:38.783Z,3.00
2023-06-18T23:55:05.709Z,3.50
2023-06-18T23:57:32.357Z,3.20
2023-06-18T23:59:59.286Z,3.50
